sensor_id;sensor_type;location;lat;lon;timestamp;P1;durP1;ratioP1;P2;durP2;ratioP2
33459;SDS011;19795;53.160;6.612;2023-09-12T05:19:46;1999.90;;;999.90;;
33459;SDS011;19795;53.160;6.612;2023-09-12T05:25:09;1999.90;;;999.90;;
33459;SDS011;19795;53.160;6.612;2023-09-12T05:27:34;1999.90;;;999.90;;
33459;SDS011;19795;53.160;6.612;2023-09-12T05:30:00;1999.90;;;999.90;;
33459;SDS011;19795;53.160;6.612;2023-09-12T05:32:26;1999.90;;;999.90;;
33459;SDS011;19795;53.160;6.612;2023-09-12T05:34:51;1999.90;;;999.90;;
33459;SDS011;19795;53.160;6.612;2023-09-12T05:37:17;1999.90;;;999.90;;
33459;SDS011;19795;53.160;6.612;2023-09-12T05:39:44;1999.90;;;999.90;;
33459;SDS011;19795;53.160;6.612;2023-09-12T05:42:09;1999.90;;;999.90;;
33459;SDS011;19795;53.160;6.612;2023-09-12T05:44:35;1999.90;;;999.90;;
33459;SDS011;19795;53.160;6.612;2023-09-12T05:47:01;1999.90;;;999.90;;
33459;SDS011;19795;53.160;6.612;2023-09-12T05:49:26;1999.90;;;999.90;;
33459;SDS011;19795;53.160;6.612;2023-09-12T05:51:52;1999.90;;;999.90;;
33459;SDS011;19795;53.160;6.612;2023-09-12T05:54:17;1999.90;;;999.90;;
33459;SDS011;19795;53.160;6.612;2023-09-12T05:56:44;1999.90;;;999.90;;
33459;SDS011;19795;53.160;6.612;2023-09-12T05:59:10;1999.90;;;999.90;;
33459;SDS011;19795;53.160;6.612;2023-09-12T06:01:35;1999.90;;;999.90;;
33459;SDS011;19795;53.160;6.612;2023-09-12T06:04:01;1999.90;;;999.90;;
33459;SDS011;19795;53.160;6.612;2023-09-12T06:06:27;1999.90;;;999.90;;
33459;SDS011;19795;53.160;6.612;2023-09-12T06:08:53;1999.90;;;999.90;;
33459;SDS011;19795;53.160;6.612;2023-09-12T06:11:19;1999.90;;;999.90;;
33459;SDS011;19795;53.160;6.612;2023-09-12T06:13:45;1999.90;;;999.90;;
33459;SDS011;19795;53.160;6.612;2023-09-12T06:16:10;1999.90;;;999.90;;
33459;SDS011;19795;53.160;6.612;2023-09-12T06:18:36;1018.15;;;507.77;;
33459;SDS011;19795;53.160;6.612;2023-09-12T06:21:02;1534.28;;;758.20;;
33459;SDS011;19795;53.160;6.612;2023-09-12T06:23:33;1540.13;;;760.97;;
33459;SDS011;19795;53.160;6.612;2023-09-12T06:25:59;249.88;;;61.97;;
33459;SDS011;19795;53.160;6.612;2023-09-12T06:28:25;1556.90;;;762.50;;
33459;SDS011;19795;53.160;6.612;2023-09-12T06:30:52;1999.90;;;999.90;;
33459;SDS011;19795;53.160;6.612;2023-09-12T06:33:18;1999.90;;;999.90;;
33459;SDS011;19795;53.160;6.612;2023-09-12T06:35:47;1597.82;;;771.45;;
33459;SDS011;19795;53.160;6.612;2023-09-12T06:38:14;1202.53;;;549.08;;
33459;SDS011;19795;53.160;6.612;2023-09-12T06:40:39;430.60;;;95.65;;
33459;SDS011;19795;53.160;6.612;2023-09-12T06:43:05;626.22;;;171.43;;
33459;SDS011;19795;53.160;6.612;2023-09-12T06:45:31;661.25;;;167.35;;
33459;SDS011;19795;53.160;6.612;2023-09-12T06:47:58;522.25;;;131.13;;
33459;SDS011;19795;53.160;6.612;2023-09-12T06:50:23;794.55;;;227.65;;
33459;SDS011;19795;53.160;6.612;2023-09-12T06:52:49;825.83;;;215.52;;
33459;SDS011;19795;53.160;6.612;2023-09-12T06:55:14;662.17;;;196.93;;
33459;SDS011;19795;53.160;6.612;2023-09-12T06:57:40;822.42;;;234.45;;
33459;SDS011;19795;53.160;6.612;2023-09-12T07:00:07;1187.32;;;393.48;;
33459;SDS011;19795;53.160;6.612;2023-09-12T07:02:33;1101.57;;;380.38;;
33459;SDS011;19795;53.160;6.612;2023-09-12T07:04:59;1475.30;;;519.42;;
33459;SDS011;19795;53.160;6.612;2023-09-12T07:07:25;1626.32;;;595.80;;
33459;SDS011;19795;53.160;6.612;2023-09-12T07:09:50;1261.32;;;423.85;;
33459;SDS011;19795;53.160;6.612;2023-09-12T07:12:19;1464.57;;;542.05;;
33459;SDS011;19795;53.160;6.612;2023-09-12T07:14:45;1477.03;;;578.92;;
33459;SDS011;19795;53.160;6.612;2023-09-12T07:17:10;1742.28;;;662.42;;
33459;SDS011;19795;53.160;6.612;2023-09-12T07:19:36;1578.20;;;531.78;;
33459;SDS011;19795;53.160;6.612;2023-09-12T07:22:02;1586.85;;;623.13;;
33459;SDS011;19795;53.160;6.612;2023-09-12T07:24:28;1769.57;;;769.10;;
33459;SDS011;19795;53.160;6.612;2023-09-12T07:26:53;1828.60;;;669.83;;
33459;SDS011;19795;53.160;6.612;2023-09-12T07:29:19;1552.95;;;675.90;;
33459;SDS011;19795;53.160;6.612;2023-09-12T07:31:45;1190.63;;;460.50;;
33459;SDS011;19795;53.160;6.612;2023-09-12T07:34:13;1468.50;;;565.67;;
33459;SDS011;19795;53.160;6.612;2023-09-12T07:36:40;1737.72;;;728.95;;
33459;SDS011;19795;53.160;6.612;2023-09-12T07:39:05;1665.65;;;683.35;;
33459;SDS011;19795;53.160;6.612;2023-09-12T07:41:31;1999.53;;;783.90;;
33459;SDS011;19795;53.160;6.612;2023-09-12T07:43:57;1839.60;;;906.08;;
33459;SDS011;19795;53.160;6.612;2023-09-12T07:46:23;1602.03;;;781.28;;
33459;SDS011;19795;53.160;6.612;2023-09-12T07:48:48;1326.22;;;644.38;;
33459;SDS011;19795;53.160;6.612;2023-09-12T07:51:15;1653.07;;;879.78;;
33459;SDS011;19795;53.160;6.612;2023-09-12T07:53:43;1715.50;;;913.95;;
33459;SDS011;19795;53.160;6.612;2023-09-12T07:56:09;1482.15;;;836.15;;
33459;SDS011;19795;53.160;6.612;2023-09-12T07:58:40;1641.82;;;845.65;;
33459;SDS011;19795;53.160;6.612;2023-09-12T08:01:08;1585.88;;;882.90;;
33459;SDS011;19795;53.160;6.612;2023-09-12T08:03:38;1684.32;;;920.88;;
33459;SDS011;19795;53.160;6.612;2023-09-12T08:06:08;1685.90;;;910.00;;
33459;SDS011;19795;53.160;6.612;2023-09-12T08:08:36;1676.28;;;838.45;;
33459;SDS011;19795;53.160;6.612;2023-09-12T08:11:02;1782.05;;;841.72;;
33459;SDS011;19795;53.160;6.612;2023-09-12T08:13:29;1897.90;;;844.15;;
33459;SDS011;19795;53.160;6.612;2023-09-12T08:15:55;1848.45;;;799.00;;
33459;SDS011;19795;53.160;6.612;2023-09-12T08:18:25;1756.10;;;847.67;;
33459;SDS011;19795;53.160;6.612;2023-09-12T08:20:55;1628.23;;;682.63;;
33459;SDS011;19795;53.160;6.612;2023-09-12T08:23:20;1754.82;;;806.38;;
33459;SDS011;19795;53.160;6.612;2023-09-12T08:25:46;1765.45;;;783.70;;
33459;SDS011;19795;53.160;6.612;2023-09-12T08:28:15;1727.85;;;820.03;;
33459;SDS011;19795;53.160;6.612;2023-09-12T08:30:47;1745.25;;;868.88;;
33459;SDS011;19795;53.160;6.612;2023-09-12T08:33:13;1527.95;;;720.03;;
33459;SDS011;19795;53.160;6.612;2023-09-12T08:35:41;1654.30;;;829.80;;
33459;SDS011;19795;53.160;6.612;2023-09-12T08:38:08;1712.88;;;863.22;;
33459;SDS011;19795;53.160;6.612;2023-09-12T08:40:33;1809.85;;;829.53;;
33459;SDS011;19795;53.160;6.612;2023-09-12T08:43:00;1763.25;;;800.47;;
33459;SDS011;19795;53.160;6.612;2023-09-12T08:45:26;1850.15;;;820.67;;
33459;SDS011;19795;53.160;6.612;2023-09-12T08:47:53;1856.53;;;913.60;;
33459;SDS011;19795;53.160;6.612;2023-09-12T08:50:19;1727.95;;;925.00;;
33459;SDS011;19795;53.160;6.612;2023-09-12T08:52:48;1491.65;;;899.90;;
33459;SDS011;19795;53.160;6.612;2023-09-12T08:55:14;1564.60;;;872.25;;
33459;SDS011;19795;53.160;6.612;2023-09-12T08:57:43;1637.30;;;945.85;;
33459;SDS011;19795;53.160;6.612;2023-09-12T09:00:11;1520.00;;;947.08;;
33459;SDS011;19795;53.160;6.612;2023-09-12T09:02:38;1476.95;;;931.25;;
33459;SDS011;19795;53.160;6.612;2023-09-12T09:05:08;1470.10;;;936.10;;
33459;SDS011;19795;53.160;6.612;2023-09-12T09:07:35;1383.45;;;921.15;;
33459;SDS011;19795;53.160;6.612;2023-09-12T09:10:03;1361.68;;;888.25;;
33459;SDS011;19795;53.160;6.612;2023-09-12T09:12:31;1580.20;;;944.67;;
33459;SDS011;19795;53.160;6.612;2023-09-12T09:14:57;1231.53;;;902.33;;
33459;SDS011;19795;53.160;6.612;2023-09-12T09:17:23;1243.20;;;855.97;;
33459;SDS011;19795;53.160;6.612;2023-09-12T09:19:51;1486.53;;;940.78;;
33459;SDS011;19795;53.160;6.612;2023-09-12T09:22:19;1469.55;;;979.63;;
33459;SDS011;19795;53.160;6.612;2023-09-12T09:24:44;1249.55;;;936.28;;
33459;SDS011;19795;53.160;6.612;2023-09-12T09:27:10;1232.20;;;976.25;;
33459;SDS011;19795;53.160;6.612;2023-09-12T09:29:45;1169.88;;;948.33;;
33459;SDS011;19795;53.160;6.612;2023-09-12T09:32:17;1151.28;;;932.17;;
33459;SDS011;19795;53.160;6.612;2023-09-12T09:34:45;1168.43;;;879.30;;
33459;SDS011;19795;53.160;6.612;2023-09-12T09:37:11;1148.35;;;936.60;;
33459;SDS011;19795;53.160;6.612;2023-09-12T09:39:37;1038.18;;;918.88;;
33459;SDS011;19795;53.160;6.612;2023-09-12T09:42:03;1124.97;;;925.65;;
33459;SDS011;19795;53.160;6.612;2023-09-12T09:44:34;980.20;;;869.17;;
33459;SDS011;19795;53.160;6.612;2023-09-12T09:47:01;1047.18;;;906.33;;
33459;SDS011;19795;53.160;6.612;2023-09-12T09:49:32;1055.45;;;922.78;;
33459;SDS011;19795;53.160;6.612;2023-09-12T09:52:03;1120.57;;;952.80;;
33459;SDS011;19795;53.160;6.612;2023-09-12T09:54:29;1403.80;;;982.30;;
33459;SDS011;19795;53.160;6.612;2023-09-12T09:56:55;1589.50;;;986.83;;
33459;SDS011;19795;53.160;6.612;2023-09-12T09:59:22;944.83;;;846.95;;
33459;SDS011;19795;53.160;6.612;2023-09-12T10:01:55;983.13;;;876.47;;
33459;SDS011;19795;53.160;6.612;2023-09-12T10:04:26;1052.17;;;895.73;;
33459;SDS011;19795;53.160;6.612;2023-09-12T10:06:54;931.17;;;835.63;;
33459;SDS011;19795;53.160;6.612;2023-09-12T10:09:22;1007.45;;;902.45;;
33459;SDS011;19795;53.160;6.612;2023-09-12T10:11:51;1051.88;;;926.55;;
33459;SDS011;19795;53.160;6.612;2023-09-12T10:14:18;1054.15;;;940.75;;
33459;SDS011;19795;53.160;6.612;2023-09-12T10:16:45;986.42;;;883.53;;
33459;SDS011;19795;53.160;6.612;2023-09-12T10:19:25;991.65;;;882.20;;
33459;SDS011;19795;53.160;6.612;2023-09-12T10:22:17;997.53;;;896.92;;
33459;SDS011;19795;53.160;6.612;2023-09-12T10:24:49;1023.08;;;923.08;;
33459;SDS011;19795;53.160;6.612;2023-09-12T10:27:15;1008.25;;;911.80;;
33459;SDS011;19795;53.160;6.612;2023-09-12T10:29:43;1023.83;;;923.97;;
33459;SDS011;19795;53.160;6.612;2023-09-12T10:32:12;1019.35;;;916.17;;
33459;SDS011;19795;53.160;6.612;2023-09-12T10:34:39;1010.25;;;907.75;;
33459;SDS011;19795;53.160;6.612;2023-09-12T10:37:10;921.13;;;832.97;;
33459;SDS011;19795;53.160;6.612;2023-09-12T10:39:40;917.33;;;828.60;;
33459;SDS011;19795;53.160;6.612;2023-09-12T10:42:06;965.55;;;862.78;;
33459;SDS011;19795;53.160;6.612;2023-09-12T10:44:32;900.78;;;813.20;;
33459;SDS011;19795;53.160;6.612;2023-09-12T10:46:59;936.97;;;842.35;;
33459;SDS011;19795;53.160;6.612;2023-09-12T10:49:26;968.92;;;870.60;;
33459;SDS011;19795;53.160;6.612;2023-09-12T10:51:55;886.78;;;802.00;;
33459;SDS011;19795;53.160;6.612;2023-09-12T10:54:26;879.05;;;798.92;;
33459;SDS011;19795;53.160;6.612;2023-09-12T10:57:09;979.13;;;885.55;;
33459;SDS011;19795;53.160;6.612;2023-09-12T11:02:28;968.78;;;875.30;;
33459;SDS011;19795;53.160;6.612;2023-09-12T11:05:34;983.35;;;888.58;;
33459;SDS011;19795;53.160;6.612;2023-09-12T11:07:59;826.17;;;753.75;;
33459;SDS011;19795;53.160;6.612;2023-09-12T11:10:26;931.17;;;848.97;;
33459;SDS011;19795;53.160;6.612;2023-09-12T11:12:53;926.53;;;846.22;;
33459;SDS011;19795;53.160;6.612;2023-09-12T11:15:26;908.47;;;834.25;;
33459;SDS011;19795;53.160;6.612;2023-09-12T11:18:04;898.25;;;825.22;;
33459;SDS011;19795;53.160;6.612;2023-09-12T11:23:28;952.08;;;871.15;;
33459;SDS011;19795;53.160;6.612;2023-09-12T11:26:06;960.08;;;877.03;;
33459;SDS011;19795;53.160;6.612;2023-09-12T11:28:32;930.83;;;851.08;;
33459;SDS011;19795;53.160;6.612;2023-09-12T11:30:58;885.72;;;809.67;;
33459;SDS011;19795;53.160;6.612;2023-09-12T11:33:24;891.10;;;816.90;;
33459;SDS011;19795;53.160;6.612;2023-09-12T11:35:54;556.80;;;512.75;;
33459;SDS011;19795;53.160;6.612;2023-09-12T11:38:27;792.80;;;726.67;;
33459;SDS011;19795;53.160;6.612;2023-09-12T11:40:54;910.47;;;833.88;;
33459;SDS011;19795;53.160;6.612;2023-09-12T11:43:21;942.55;;;862.05;;
33459;SDS011;19795;53.160;6.612;2023-09-12T11:45:48;897.05;;;825.63;;
33459;SDS011;19795;53.160;6.612;2023-09-12T11:48:14;879.85;;;809.38;;
33459;SDS011;19795;53.160;6.612;2023-09-12T11:50:41;900.72;;;828.95;;
33459;SDS011;19795;53.160;6.612;2023-09-12T11:53:11;906.20;;;830.03;;
33459;SDS011;19795;53.160;6.612;2023-09-12T11:55:42;908.97;;;835.95;;
33459;SDS011;19795;53.160;6.612;2023-09-12T11:58:12;943.60;;;867.22;;
33459;SDS011;19795;53.160;6.612;2023-09-12T12:00:44;885.13;;;812.33;;
33459;SDS011;19795;53.160;6.612;2023-09-12T12:03:15;967.88;;;881.03;;
33459;SDS011;19795;53.160;6.612;2023-09-12T12:05:41;849.95;;;779.20;;
33459;SDS011;19795;53.160;6.612;2023-09-12T12:08:08;645.50;;;593.47;;
33459;SDS011;19795;53.160;6.612;2023-09-12T12:10:34;876.05;;;806.38;;
33459;SDS011;19795;53.160;6.612;2023-09-12T12:13:01;800.05;;;744.35;;
33459;SDS011;19795;53.160;6.612;2023-09-12T12:15:29;876.60;;;811.38;;
33459;SDS011;19795;53.160;6.612;2023-09-12T12:17:55;879.08;;;814.42;;
33459;SDS011;19795;53.160;6.612;2023-09-12T12:20:21;865.53;;;800.30;;
33459;SDS011;19795;53.160;6.612;2023-09-12T12:22:47;921.78;;;846.13;;
33459;SDS011;19795;53.160;6.612;2023-09-12T12:25:16;846.47;;;785.13;;
33459;SDS011;19795;53.160;6.612;2023-09-12T12:27:42;917.90;;;845.72;;
33459;SDS011;19795;53.160;6.612;2023-09-12T12:30:09;852.22;;;789.28;;
33459;SDS011;19795;53.160;6.612;2023-09-12T12:32:43;918.05;;;842.88;;
33459;SDS011;19795;53.160;6.612;2023-09-12T12:37:44;878.00;;;808.92;;
33459;SDS011;19795;53.160;6.612;2023-09-12T12:40:14;835.00;;;775.30;;
33459;SDS011;19795;53.160;6.612;2023-09-12T12:42:40;826.85;;;764.63;;
33459;SDS011;19795;53.160;6.612;2023-09-12T12:45:22;830.00;;;770.33;;
33459;SDS011;19795;53.160;6.612;2023-09-12T12:47:57;859.03;;;793.10;;
33459;SDS011;19795;53.160;6.612;2023-09-12T12:50:24;902.88;;;833.05;;
33459;SDS011;19795;53.160;6.612;2023-09-12T12:52:50;846.20;;;783.75;;
33459;SDS011;19795;53.160;6.612;2023-09-12T12:55:16;842.60;;;781.80;;
33459;SDS011;19795;53.160;6.612;2023-09-12T12:57:42;858.97;;;796.08;;
33459;SDS011;19795;53.160;6.612;2023-09-12T13:00:09;852.15;;;790.45;;
33459;SDS011;19795;53.160;6.612;2023-09-12T13:02:36;873.47;;;807.65;;
33459;SDS011;19795;53.160;6.612;2023-09-12T13:05:03;896.85;;;829.13;;
33459;SDS011;19795;53.160;6.612;2023-09-12T13:07:33;839.83;;;780.15;;
33459;SDS011;19795;53.160;6.612;2023-09-12T13:10:00;796.70;;;740.65;;
33459;SDS011;19795;53.160;6.612;2023-09-12T13:12:27;731.35;;;683.38;;
33459;SDS011;19795;53.160;6.612;2023-09-12T13:14:53;771.50;;;719.40;;
33459;SDS011;19795;53.160;6.612;2023-09-12T13:17:18;689.17;;;644.15;;
33459;SDS011;19795;53.160;6.612;2023-09-12T13:19:44;738.78;;;689.45;;
33459;SDS011;19795;53.160;6.612;2023-09-12T13:22:10;721.65;;;674.08;;
33459;SDS011;19795;53.160;6.612;2023-09-12T13:24:36;691.47;;;647.97;;
33459;SDS011;19795;53.160;6.612;2023-09-12T13:27:02;1049.97;;;713.45;;
33459;SDS011;19795;53.160;6.612;2023-09-12T13:29:27;1025.47;;;921.30;;
33459;SDS011;19795;53.160;6.612;2023-09-12T13:31:53;1113.65;;;976.85;;
33459;SDS011;19795;53.160;6.612;2023-09-12T13:34:22;868.42;;;793.40;;
33459;SDS011;19795;53.160;6.612;2023-09-12T13:42:58;1232.97;;;837.05;;
33459;SDS011;19795;53.160;6.612;2023-09-12T13:45:26;1102.22;;;600.75;;
33459;SDS011;19795;53.160;6.612;2023-09-12T13:47:51;764.28;;;380.83;;
33459;SDS011;19795;53.160;6.612;2023-09-12T13:50:17;1267.25;;;702.22;;
33459;SDS011;19795;53.160;6.612;2023-09-12T13:52:44;1078.35;;;935.03;;
33459;SDS011;19795;53.160;6.612;2023-09-12T13:55:10;1063.45;;;928.70;;
33459;SDS011;19795;53.160;6.612;2023-09-12T13:57:39;1387.45;;;958.40;;
33459;SDS011;19795;53.160;6.612;2023-09-12T14:00:04;1292.70;;;932.38;;
33459;SDS011;19795;53.160;6.612;2023-09-12T14:02:31;1292.65;;;863.97;;
33459;SDS011;19795;53.160;6.612;2023-09-12T14:04:57;1275.53;;;953.13;;
33459;SDS011;19795;53.160;6.612;2023-09-12T14:07:23;1375.13;;;816.72;;
33459;SDS011;19795;53.160;6.612;2023-09-12T14:09:48;932.65;;;723.03;;
33459;SDS011;19795;53.160;6.612;2023-09-12T14:12:16;1676.53;;;787.83;;
33459;SDS011;19795;53.160;6.612;2023-09-12T14:14:42;1395.45;;;944.03;;
33459;SDS011;19795;53.160;6.612;2023-09-12T14:17:08;1403.43;;;798.63;;
33459;SDS011;19795;53.160;6.612;2023-09-12T14:19:34;1346.00;;;930.53;;
33459;SDS011;19795;53.160;6.612;2023-09-12T14:22:00;1416.70;;;839.15;;
33459;SDS011;19795;53.160;6.612;2023-09-12T14:24:25;1341.50;;;889.78;;
33459;SDS011;19795;53.160;6.612;2023-09-12T14:26:51;1252.72;;;858.63;;
33459;SDS011;19795;53.160;6.612;2023-09-12T14:29:17;1284.47;;;797.80;;
33459;SDS011;19795;53.160;6.612;2023-09-12T14:31:43;1383.55;;;922.58;;
33459;SDS011;19795;53.160;6.612;2023-09-12T14:34:15;1067.93;;;874.63;;
33459;SDS011;19795;53.160;6.612;2023-09-12T14:36:44;1038.53;;;907.13;;
33459;SDS011;19795;53.160;6.612;2023-09-12T14:39:12;1368.45;;;794.67;;
33459;SDS011;19795;53.160;6.612;2023-09-12T14:41:39;1267.57;;;620.80;;
33459;SDS011;19795;53.160;6.612;2023-09-12T14:44:08;1513.45;;;875.28;;
33459;SDS011;19795;53.160;6.612;2023-09-12T14:46:34;1237.80;;;949.45;;
33459;SDS011;19795;53.160;6.612;2023-09-12T14:49:00;1283.78;;;718.22;;
33459;SDS011;19795;53.160;6.612;2023-09-12T14:51:25;1201.05;;;913.95;;
33459;SDS011;19795;53.160;6.612;2023-09-12T14:53:51;1091.43;;;498.63;;
33459;SDS011;19795;53.160;6.612;2023-09-12T14:56:17;1551.80;;;953.88;;
33459;SDS011;19795;53.160;6.612;2023-09-12T14:58:42;1141.10;;;797.28;;
33459;SDS011;19795;53.160;6.612;2023-09-12T15:01:08;1452.05;;;919.13;;
33459;SDS011;19795;53.160;6.612;2023-09-12T15:03:34;1493.75;;;873.85;;
33459;SDS011;19795;53.160;6.612;2023-09-12T15:06:04;1408.65;;;926.70;;
33459;SDS011;19795;53.160;6.612;2023-09-12T15:08:30;1250.45;;;896.22;;
33459;SDS011;19795;53.160;6.612;2023-09-12T15:10:55;1511.40;;;910.15;;
33459;SDS011;19795;53.160;6.612;2023-09-12T15:13:21;1428.65;;;712.35;;
33459;SDS011;19795;53.160;6.612;2023-09-12T15:15:47;1287.80;;;782.38;;
33459;SDS011;19795;53.160;6.612;2023-09-12T15:18:13;1460.03;;;941.90;;
33459;SDS011;19795;53.160;6.612;2023-09-12T15:20:38;1621.82;;;892.10;;
33459;SDS011;19795;53.160;6.612;2023-09-12T15:23:04;1688.28;;;942.50;;
33459;SDS011;19795;53.160;6.612;2023-09-12T15:25:30;1525.88;;;875.20;;
33459;SDS011;19795;53.160;6.612;2023-09-12T15:27:58;1579.85;;;865.35;;
33459;SDS011;19795;53.160;6.612;2023-09-12T15:30:24;1335.40;;;771.92;;
33459;SDS011;19795;53.160;6.612;2023-09-12T15:32:49;1272.75;;;920.63;;
33459;SDS011;19795;53.160;6.612;2023-09-12T15:35:15;1117.07;;;789.72;;
33459;SDS011;19795;53.160;6.612;2023-09-12T15:37:40;1513.22;;;948.10;;
33459;SDS011;19795;53.160;6.612;2023-09-12T15:40:06;1654.70;;;909.67;;
33459;SDS011;19795;53.160;6.612;2023-09-12T15:42:32;1529.22;;;789.05;;
33459;SDS011;19795;53.160;6.612;2023-09-12T15:44:58;495.85;;;139.77;;
33459;SDS011;19795;53.160;6.612;2023-09-12T15:47:24;1591.60;;;947.30;;
33459;SDS011;19795;53.160;6.612;2023-09-12T15:49:49;1006.72;;;413.67;;
33459;SDS011;19795;53.160;6.612;2023-09-12T15:52:15;1287.40;;;676.75;;
33459;SDS011;19795;53.160;6.612;2023-09-12T15:54:41;1183.22;;;517.83;;
33459;SDS011;19795;53.160;6.612;2023-09-12T15:57:07;1328.47;;;596.05;;
33459;SDS011;19795;53.160;6.612;2023-09-12T15:59:32;1615.93;;;805.45;;
33459;SDS011;19795;53.160;6.612;2023-09-12T16:01:58;1693.90;;;825.75;;
33459;SDS011;19795;53.160;6.612;2023-09-12T16:04:33;716.72;;;290.55;;
33459;SDS011;19795;53.160;6.612;2023-09-12T16:06:59;1559.03;;;733.22;;
33459;SDS011;19795;53.160;6.612;2023-09-12T16:09:25;685.72;;;230.93;;
33459;SDS011;19795;53.160;6.612;2023-09-12T16:11:50;895.53;;;427.08;;
33459;SDS011;19795;53.160;6.612;2023-09-12T16:14:16;1219.60;;;724.05;;
33459;SDS011;19795;53.160;6.612;2023-09-12T16:16:42;1315.07;;;728.80;;
33459;SDS011;19795;53.160;6.612;2023-09-12T16:19:07;989.30;;;492.35;;
33459;SDS011;19795;53.160;6.612;2023-09-12T16:21:34;961.15;;;395.38;;
33459;SDS011;19795;53.160;6.612;2023-09-12T16:24:00;1272.28;;;564.80;;
33459;SDS011;19795;53.160;6.612;2023-09-12T16:26:26;1332.18;;;674.85;;
33459;SDS011;19795;53.160;6.612;2023-09-12T16:28:51;751.25;;;338.80;;
33459;SDS011;19795;53.160;6.612;2023-09-12T16:31:17;1272.65;;;618.70;;
33459;SDS011;19795;53.160;6.612;2023-09-12T16:33:45;1132.43;;;493.85;;
33459;SDS011;19795;53.160;6.612;2023-09-12T16:36:11;1120.68;;;545.42;;
33459;SDS011;19795;53.160;6.612;2023-09-12T16:38:37;1393.75;;;766.33;;
33459;SDS011;19795;53.160;6.612;2023-09-12T16:41:02;1303.38;;;781.10;;
33459;SDS011;19795;53.160;6.612;2023-09-12T16:43:28;1354.57;;;621.70;;
33459;SDS011;19795;53.160;6.612;2023-09-12T16:45:54;1519.18;;;804.13;;
33459;SDS011;19795;53.160;6.612;2023-09-12T16:48:20;1683.38;;;866.42;;
33459;SDS011;19795;53.160;6.612;2023-09-12T16:50:47;1157.80;;;603.17;;
33459;SDS011;19795;53.160;6.612;2023-09-12T16:53:13;1331.35;;;670.72;;
33459;SDS011;19795;53.160;6.612;2023-09-12T16:55:40;1219.22;;;507.83;;
33459;SDS011;19795;53.160;6.612;2023-09-12T16:58:07;974.55;;;358.67;;
33459;SDS011;19795;53.160;6.612;2023-09-12T17:00:33;1480.13;;;728.38;;
33459;SDS011;19795;53.160;6.612;2023-09-12T17:03:01;1198.45;;;567.05;;
33459;SDS011;19795;53.160;6.612;2023-09-12T17:05:27;1635.38;;;714.63;;
33459;SDS011;19795;53.160;6.612;2023-09-12T17:07:53;1093.38;;;524.22;;
33459;SDS011;19795;53.160;6.612;2023-09-12T17:10:19;870.97;;;324.33;;
33459;SDS011;19795;53.160;6.612;2023-09-12T17:12:45;1491.28;;;687.50;;
33459;SDS011;19795;53.160;6.612;2023-09-12T17:15:12;1367.05;;;567.97;;
33459;SDS011;19795;53.160;6.612;2023-09-12T17:17:40;1747.90;;;707.00;;
33459;SDS011;19795;53.160;6.612;2023-09-12T17:20:05;1318.60;;;566.17;;
33459;SDS011;19795;53.160;6.612;2023-09-12T17:22:31;1255.68;;;549.67;;
33459;SDS011;19795;53.160;6.612;2023-09-12T17:24:57;1484.38;;;626.30;;
33459;SDS011;19795;53.160;6.612;2023-09-12T17:27:23;1313.30;;;587.17;;
33459;SDS011;19795;53.160;6.612;2023-09-12T17:29:49;1332.38;;;603.20;;
33459;SDS011;19795;53.160;6.612;2023-09-12T17:32:15;1481.18;;;630.67;;
33459;SDS011;19795;53.160;6.612;2023-09-12T17:34:45;1593.32;;;780.05;;
33459;SDS011;19795;53.160;6.612;2023-09-12T17:37:16;1282.70;;;507.10;;
33459;SDS011;19795;53.160;6.612;2023-09-12T17:39:42;942.40;;;346.70;;
33459;SDS011;19795;53.160;6.612;2023-09-12T17:42:08;1370.43;;;480.48;;
33459;SDS011;19795;53.160;6.612;2023-09-12T17:44:34;1058.10;;;412.77;;
33459;SDS011;19795;53.160;6.612;2023-09-12T17:47:00;435.00;;;137.38;;
33459;SDS011;19795;53.160;6.612;2023-09-12T17:49:26;1258.03;;;463.25;;
33459;SDS011;19795;53.160;6.612;2023-09-12T17:51:52;1029.47;;;315.30;;
33459;SDS011;19795;53.160;6.612;2023-09-12T17:54:18;1067.22;;;355.48;;
33459;SDS011;19795;53.160;6.612;2023-09-12T17:56:44;925.50;;;265.50;;
33459;SDS011;19795;53.160;6.612;2023-09-12T17:59:10;1708.43;;;812.72;;
33459;SDS011;19795;53.160;6.612;2023-09-12T18:01:36;1390.22;;;598.00;;
33459;SDS011;19795;53.160;6.612;2023-09-12T18:04:02;1819.93;;;874.15;;
33459;SDS011;19795;53.160;6.612;2023-09-12T18:06:28;776.03;;;255.88;;
33459;SDS011;19795;53.160;6.612;2023-09-12T18:08:56;1700.20;;;806.28;;
33459;SDS011;19795;53.160;6.612;2023-09-12T18:11:22;1271.18;;;455.63;;
33459;SDS011;19795;53.160;6.612;2023-09-12T18:13:48;876.65;;;291.55;;
33459;SDS011;19795;53.160;6.612;2023-09-12T18:16:14;1443.47;;;534.45;;
33459;SDS011;19795;53.160;6.612;2023-09-12T18:18:41;1139.93;;;436.02;;
33459;SDS011;19795;53.160;6.612;2023-09-12T18:21:11;1158.53;;;445.48;;
33459;SDS011;19795;53.160;6.612;2023-09-12T18:23:38;1388.43;;;485.08;;
33459;SDS011;19795;53.160;6.612;2023-09-12T18:26:10;1355.10;;;502.83;;
33459;SDS011;19795;53.160;6.612;2023-09-12T18:31:16;1314.50;;;507.90;;
33459;SDS011;19795;53.160;6.612;2023-09-12T18:33:43;1111.32;;;420.13;;
33459;SDS011;19795;53.160;6.612;2023-09-12T18:36:10;1188.05;;;415.52;;
33459;SDS011;19795;53.160;6.612;2023-09-12T18:38:37;1493.00;;;584.03;;
33459;SDS011;19795;53.160;6.612;2023-09-12T18:41:04;1379.93;;;578.67;;
33459;SDS011;19795;53.160;6.612;2023-09-12T18:43:30;1432.60;;;524.83;;
33459;SDS011;19795;53.160;6.612;2023-09-12T18:45:56;1267.85;;;448.15;;
33459;SDS011;19795;53.160;6.612;2023-09-12T18:48:23;1210.43;;;427.67;;
33459;SDS011;19795;53.160;6.612;2023-09-12T18:50:49;1083.25;;;416.08;;
33459;SDS011;19795;53.160;6.612;2023-09-12T18:53:16;1435.53;;;594.08;;
33459;SDS011;19795;53.160;6.612;2023-09-12T18:55:44;1449.85;;;513.90;;
33459;SDS011;19795;53.160;6.612;2023-09-12T18:58:10;1194.68;;;469.70;;
33459;SDS011;19795;53.160;6.612;2023-09-12T19:00:39;1147.78;;;427.45;;
33459;SDS011;19795;53.160;6.612;2023-09-12T19:03:08;981.53;;;370.08;;
33459;SDS011;19795;53.160;6.612;2023-09-12T19:05:40;1653.78;;;789.95;;
33459;SDS011;19795;53.160;6.612;2023-09-12T19:08:07;1147.68;;;410.50;;
33459;SDS011;19795;53.160;6.612;2023-09-12T19:10:32;1218.65;;;469.95;;
33459;SDS011;19795;53.160;6.612;2023-09-12T19:12:58;995.30;;;406.92;;
33459;SDS011;19795;53.160;6.612;2023-09-12T19:15:24;1248.75;;;453.40;;
33459;SDS011;19795;53.160;6.612;2023-09-12T19:17:50;1290.43;;;531.78;;
33459;SDS011;19795;53.160;6.612;2023-09-12T19:20:16;1154.70;;;481.65;;
33459;SDS011;19795;53.160;6.612;2023-09-12T19:22:42;1063.57;;;424.80;;
33459;SDS011;19795;53.160;6.612;2023-09-12T19:25:08;1168.28;;;487.92;;
33459;SDS011;19795;53.160;6.612;2023-09-12T19:27:35;1116.05;;;451.20;;